Time;durP1;ratioP1;P1;durP2;ratioP2;P2;SDS_P1;SDS_P2;PMS_P1;PMS_P2;Temp;Humidity;BMP_temperature;BMP_pressure;BME280_temperature;BME280_humidity;BME280_pressure;Samples;Min_cycle;Max_cycle;Signal;HPM_P1;HPM_P2
2022/01/30 00:00:03;;;;;;;;;;;-3.80;99.90;;;;;;4157901;28;20428;-57
2022/01/30 00:02:04;;;;;;;;;;;-3.80;99.90;;;;;;4157604;28;20366;-58
2022/01/30 00:04:05;;;;;;;;;;;-3.70;99.90;;;;;;4158427;28;20009;-60
2022/01/30 00:06:06;;;;;;;;;;;-3.70;99.90;;;;;;4157411;28;19916;-60
2022/01/30 00:08:07;;;;;;;;;;;-3.70;99.90;;;;;;4158379;28;19920;-56
2022/01/30 00:10:11;;;;;;;;;;;-3.70;99.90;;;;;;4157174;28;19913;-60
2022/01/30 00:12:15;;;;;;;;;;;-3.70;99.90;;;;;;4158472;28;19921;-58
2022/01/30 00:14:18;;;;;;;;;;;-3.70;99.90;;;;;;4156449;28;19981;-57
2022/01/30 00:16:22;;;;;;;;;;;-3.80;99.90;;;;;;4144751;28;19948;-59
2022/01/30 00:20:27;;;;;;;;;;;-3.80;99.90;;;;;;4141719;28;20362;-54
2022/01/30 00:24:46;;;;;;;;;;;-3.80;99.90;;;;;;4141330;28;19922;-59
2022/01/30 00:26:48;;;;;;;;;;;-3.80;99.90;;;;;;4141187;28;20429;-55
2022/01/30 00:28:48;;;;;;;;;;;-3.90;99.90;;;;;;4140571;28;19914;-54
2022/01/30 00:30:50;;;;;;;;;;;-3.90;99.90;;;;;;4157081;28;19967;-55
2022/01/30 00:32:52;;;;;;;;;;;-4.00;99.90;;;;;;4156833;28;19917;-59
2022/01/30 00:34:53;;;;;;;;;;;-4.10;99.90;;;;;;4158168;28;19980;-56
2022/01/30 00:36:53;;;;;;;;;;;-4.10;99.90;;;;;;4156643;28;20377;-58
2022/01/30 00:38:54;;;;;;;;;;;-4.10;99.90;;;;;;4158230;28;19921;-58
2022/01/30 00:40:55;;;;;;;;;;;-4.10;99.90;;;;;;4157355;28;19913;-61
2022/01/30 00:42:56;;;;;;;;;;;-4.10;99.90;;;;;;4157955;28;19913;-58
2022/01/30 00:44:57;;;;;;;;;;;-4.10;99.90;;;;;;4156525;28;19919;-55
2022/01/30 00:47:02;;;;;;;;;;;-4.10;99.90;;;;;;4157366;28;20389;-56
2022/01/30 00:49:02;;;;;;;;;;;-4.10;99.90;;;;;;4155654;28;19967;-60
2022/01/30 00:51:03;;;;;;;;;;;-4.10;99.90;;;;;;4156859;28;19909;-63
2022/01/30 00:53:05;;;;;;;;;;;-4.10;99.90;;;;;;4155540;28;19911;-57
2022/01/30 00:55:06;;;;;;;;;;;-4.10;99.90;;;;;;4157444;28;19913;-61
2022/01/30 00:57:07;;;;;;;;;;;-4.10;99.90;;;;;;4156932;28;19909;-54
2022/01/30 00:59:08;;;;;;;;;;;-4.10;99.90;;;;;;4157026;28;19913;-58
2022/01/30 01:01:09;;;;;;;;;;;-4.00;99.90;;;;;;4157198;28;19913;-60
2022/01/30 01:03:10;;;;;;;;;;;-4.00;99.90;;;;;;4156931;28;20365;-56
2022/01/30 01:05:11;;;;;;;;;;;-4.00;99.90;;;;;;4157843;28;20653;-59
2022/01/30 01:07:19;;;;;;;;;;;-4.00;99.90;;;;;;4156844;28;19983;-60
2022/01/30 01:09:25;;;;;;;;;;;-4.00;99.90;;;;;;4158364;28;19979;-57
2022/01/30 01:20:54;;;;;;;;;;;-4.10;99.90;;;;;;4136180;28;19962;-53
2022/01/30 01:23:30;;;;;;;;;;;-4.10;99.90;;;;;;4142670;28;19948;-51
2022/01/30 01:25:31;;;;;;;;;;;-4.20;99.90;;;;;;4157016;28;19963;-56
2022/01/30 01:27:34;;;;;;;;;;;-4.20;99.90;;;;;;4156205;28;19913;-57
2022/01/30 01:29:35;;;;;;;;;;;-4.20;99.90;;;;;;4157375;28;19913;-56
2022/01/30 01:31:36;;;;;;;;;;;-4.20;99.90;;;;;;4157133;28;20312;-57
2022/01/30 01:35:53;;;;;;;;;;;-4.30;99.90;;;;;;4140450;28;20362;-57
2022/01/30 01:37:55;;;;;;;;;;;-4.20;99.90;;;;;;4140475;28;19973;-60
2022/01/30 01:39:56;;;;;;;;;;;-4.20;99.90;;;;;;4141372;28;20321;-65
2022/01/30 01:41:57;;;;;;;;;;;-4.30;99.90;;;;;;4140382;28;19913;-64
2022/01/30 01:43:58;;;;;;;;;;;-4.30;99.90;;;;;;4141333;28;19936;-61
2022/01/30 01:46:00;;;;;;;;;;;-4.20;99.90;;;;;;4139341;28;19956;-62
2022/01/30 01:48:08;;;;;;;;;;;-4.20;99.90;;;;;;4156146;28;20032;-64
2022/01/30 01:50:16;;;;;;;;;;;-4.20;99.90;;;;;;4156200;28;19913;-64
2022/01/30 01:52:23;;;;;;;;;;;-4.20;99.90;;;;;;4157387;28;19913;-60
2022/01/30 01:54:24;;;;;;;;;;;-4.20;99.90;;;;;;4157136;28;20429;-62
2022/01/30 01:56:26;;;;;;;;;;;-4.20;99.90;;;;;;4160360;28;20309;-64
2022/01/30 01:58:27;;;;;;;;;;;-4.20;99.90;;;;;;4158984;28;19917;-61
2022/01/30 02:00:28;;;;;;;;;;;-4.20;99.90;;;;;;4160637;28;20445;-60
2022/01/30 02:02:29;;;;;;;;;;;-4.10;99.90;;;;;;4159183;28;19964;-61
2022/01/30 02:04:30;;;;;;;;;;;-4.10;99.90;;;;;;4160176;28;19956;-64
2022/01/30 02:06:31;;;;;;;;;;;-4.00;99.90;;;;;;4159787;28;19951;-63
2022/01/30 02:08:40;;;;;;;;;;;-4.00;99.90;;;;;;4160030;28;20317;-64
2022/01/30 02:11:05;;;;;;;;;;;-3.90;99.90;;;;;;4159220;28;20354;-60
2022/01/30 02:13:38;;;;;;;;;;;-3.90;99.90;;;;;;4159470;28;20321;-59
2022/01/30 02:23:57;;;;;;;;;;;-3.90;99.90;;;;;;4150877;28;19956;-63
2022/01/30 02:27:35;;;;;;;;;;;-3.70;99.90;;;;;;4143330;28;20333;-63
2022/01/30 02:29:36;;;;;;;;;;;-3.60;99.90;;;;;;4141902;28;19960;-60
2022/01/30 02:31:39;;;;;;;;;;;-3.60;99.90;;;;;;4152792;28;19921;-59
2022/01/30 02:33:41;;;;;;;;;;;-3.60;99.90;;;;;;4158780;28;20355;-50
2022/01/30 02:35:42;;;;;;;;;;;-3.50;99.90;;;;;;4160028;28;20377;-55
2022/01/30 02:37:43;;;;;;;;;;;-3.50;99.90;;;;;;4158383;28;19932;-65
2022/01/30 02:39:44;;;;;;;;;;;-3.50;99.90;;;;;;4160472;28;19973;-54
2022/01/30 02:41:45;;;;;;;;;;;-3.40;99.90;;;;;;4157543;28;19925;-60
2022/01/30 02:43:57;;;;;;;;;;;-3.40;99.90;;;;;;4160011;28;20312;-52
2022/01/30 02:46:20;;;;;;;;;;;-3.30;99.90;;;;;;4141159;28;20032;-57
2022/01/30 02:48:31;;;;;;;;;;;-3.30;99.90;;;;;;4159724;28;19932;-53
2022/01/30 02:50:51;;;;;;;;;;;-3.30;99.90;;;;;;4158569;28;19913;-59
2022/01/30 02:52:57;;;;;;;;;;;-3.20;99.90;;;;;;4159555;28;19913;-57
2022/01/30 02:54:58;;;;;;;;;;;-3.20;99.90;;;;;;4158449;28;19913;-57
2022/01/30 02:56:59;;;;;;;;;;;-3.20;99.90;;;;;;4159133;28;19917;-50
2022/01/30 02:59:00;;;;;;;;;;;-3.10;99.90;;;;;;4158236;28;19921;-61
2022/01/30 03:01:02;;;;;;;;;;;-3.10;99.90;;;;;;4159908;28;19975;-57
2022/01/30 03:03:03;;;;;;;;;;;-3.00;99.90;;;;;;4158250;28;19959;-60
2022/01/30 03:05:04;;;;;;;;;;;-3.00;99.90;;;;;;4159355;28;19913;-56
2022/01/30 03:07:05;;;;;;;;;;;-3.00;99.90;;;;;;4158293;28;19964;-54
2022/01/30 03:09:08;;;;;;;;;;;-2.90;99.90;;;;;;4159098;28;19921;-53
2022/01/30 03:11:09;;;;;;;;;;;-3.00;99.90;;;;;;4158781;28;19940;-56
2022/01/30 03:13:09;;;;;;;;;;;-2.90;99.90;;;;;;4158119;28;19916;-59
2022/01/30 03:15:10;;;;;;;;;;;-2.90;99.90;;;;;;4154528;28;19913;-62
2022/01/30 03:17:11;;;;;;;;;;;-2.80;99.90;;;;;;4141394;28;19963;-56
2022/01/30 03:19:12;;;;;;;;;;;-2.80;99.90;;;;;;4143088;28;19921;-54
2022/01/30 03:21:13;;;;;;;;;;;-2.80;99.90;;;;;;4141417;28;19914;-54
2022/01/30 03:23:14;;;;;;;;;;;-2.80;99.90;;;;;;4157662;28;19924;-51
2022/01/30 03:25:15;;;;;;;;;;;-2.70;99.90;;;;;;4157802;28;19914;-56
2022/01/30 03:27:16;;;;;;;;;;;-2.70;99.90;;;;;;4159135;28;19913;-55
2022/01/30 03:29:18;;;;;;;;;;;-2.80;99.90;;;;;;4157974;28;20250;-49
2022/01/30 03:31:20;;;;;;;;;;;-2.80;99.90;;;;;;4159194;28;19952;-55
2022/01/30 03:33:21;;;;;;;;;;;-2.80;99.90;;;;;;4157918;28;19916;-54
2022/01/30 03:35:23;;;;;;;;;;;-2.80;99.90;;;;;;4158749;28;20403;-55
2022/01/30 03:37:24;;;;;;;;;;;-2.80;99.90;;;;;;4157427;28;20806;-59
2022/01/30 03:39:25;;;;;;;;;;;-2.80;99.90;;;;;;4157982;28;19964;-62
2022/01/30 03:41:26;;;;;;;;;;;-2.90;99.90;;;;;;4158148;28;19909;-59
2022/01/30 03:43:27;;;;;;;;;;;-2.80;99.90;;;;;;4158388;28;20361;-53
2022/01/30 03:45:28;;;;;;;;;;;-2.90;99.90;;;;;;4158168;28;19955;-60
2022/01/30 03:47:29;;;;;;;;;;;-2.90;99.90;;;;;;4157504;28;19925;-61
2022/01/30 03:49:29;;;;;;;;;;;-2.90;99.90;;;;;;4158796;28;20404;-60
2022/01/30 03:51:30;;;;;;;;;;;-2.90;99.90;;;;;;4157102;28;19963;-56
2022/01/30 03:53:32;;;;;;;;;;;-2.90;99.90;;;;;;4159104;28;19913;-58
2022/01/30 03:55:33;;;;;;;;;;;-2.90;99.90;;;;;;4157552;28;19913;-52
2022/01/30 03:57:34;;;;;;;;;;;-3.00;99.90;;;;;;4157575;28;19917;-55
2022/01/30 03:59:35;;;;;;;;;;;-3.00;99.90;;;;;;4157208;28;20271;-56
2022/01/30 04:01:37;;;;;;;;;;;-2.90;99.90;;;;;;4157828;28;19921;-55
2022/01/30 04:03:38;;;;;;;;;;;-3.00;99.90;;;;;;4157152;28;19913;-56
2022/01/30 04:05:39;;;;;;;;;;;-3.00;99.90;;;;;;4158057;28;19917;-59
2022/01/30 04:07:40;;;;;;;;;;;-3.00;99.90;;;;;;4156955;28;19909;-59
2022/01/30 04:09:41;;;;;;;;;;;-3.10;99.90;;;;;;4158772;28;19963;-58
2022/01/30 04:11:42;;;;;;;;;;;-3.10;99.90;;;;;;4156914;28;19917;-57
2022/01/30 04:13:43;;;;;;;;;;;-3.10;99.90;;;;;;4157025;28;20367;-60
2022/01/30 04:15:44;;;;;;;;;;;-3.10;99.90;;;;;;4149297;28;19905;-58
2022/01/30 04:17:45;;;;;;;;;;;-3.20;99.90;;;;;;4156697;28;20826;-54
2022/01/30 04:19:46;;;;;;;;;;;-3.10;99.90;;;;;;4157953;28;20393;-56
2022/01/30 04:21:47;;;;;;;;;;;-3.10;99.90;;;;;;4156464;28;19915;-54
2022/01/30 04:23:48;;;;;;;;;;;-3.10;99.90;;;;;;4158333;28;19952;-56
2022/01/30 04:25:50;;;;;;;;;;;-3.10;99.90;;;;;;4157557;28;19913;-53
2022/01/30 04:27:51;;;;;;;;;;;-3.20;99.90;;;;;;4157942;28;19971;-55
2022/01/30 04:29:53;;;;;;;;;;;-3.20;99.90;;;;;;4156922;28;19913;-64
2022/01/30 04:31:54;;;;;;;;;;;-3.20;99.90;;;;;;4157817;28;20446;-58
2022/01/30 04:33:55;;;;;;;;;;;-3.20;99.90;;;;;;4156829;28;19913;-59
2022/01/30 04:35:57;;;;;;;;;;;-3.20;99.90;;;;;;4158315;28;19963;-61
2022/01/30 04:58:01;;;;;;;;;;;-3.30;99.90;;;;;;4141623;28;19917;-58
2022/01/30 05:00:19;;;;;;;;;;;-3.40;99.90;;;;;;4139764;28;20760;-58
2022/01/30 05:04:47;;;;;;;;;;;-3.40;99.90;;;;;;4140542;28;19913;-62
2022/01/30 05:08:54;;;;;;;;;;;-3.50;99.90;;;;;;4156589;28;19917;-62
2022/01/30 05:10:55;;;;;;;;;;;-3.40;99.90;;;;;;4158633;28;19975;-61
2022/01/30 05:12:58;;;;;;;;;;;-3.40;99.90;;;;;;4156613;28;19916;-62
2022/01/30 05:15:00;;;;;;;;;;;-3.40;99.90;;;;;;4155215;28;19913;-63
2022/01/30 05:17:01;;;;;;;;;;;-3.40;99.90;;;;;;4140395;28;19971;-62
2022/01/30 05:19:02;;;;;;;;;;;-3.30;99.90;;;;;;4140920;28;19926;-64
2022/01/30 05:21:03;;;;;;;;;;;-3.30;99.90;;;;;;4150681;28;19913;-62
2022/01/30 05:23:04;;;;;;;;;;;-3.30;99.90;;;;;;4157008;28;19920;-61
2022/01/30 05:25:05;;;;;;;;;;;-3.30;99.90;;;;;;4156623;28;19943;-64
2022/01/30 05:27:06;;;;;;;;;;;-3.20;99.90;;;;;;4150557;28;19917;-63
2022/01/30 05:29:07;;;;;;;;;;;-3.20;99.90;;;;;;4159041;28;19936;-64
2022/01/30 05:31:08;;;;;;;;;;;-3.20;99.90;;;;;;4157798;28;19967;-60
2022/01/30 05:33:11;;;;;;;;;;;-3.20;99.90;;;;;;4153927;28;19909;-63
2022/01/30 05:35:13;;;;;;;;;;;-3.20;99.90;;;;;;4158131;28;20416;-64
2022/01/30 05:37:16;;;;;;;;;;;-3.20;99.90;;;;;;4160723;28;19913;-62
2022/01/30 05:39:17;;;;;;;;;;;-3.20;99.90;;;;;;4159331;28;20035;-61
2022/01/30 05:41:18;;;;;;;;;;;-3.20;99.90;;;;;;4160914;28;19913;-64
2022/01/30 05:43:19;;;;;;;;;;;-3.10;99.90;;;;;;4141345;28;20373;-63
2022/01/30 05:47:37;;;;;;;;;;;-3.20;99.90;;;;;;4159242;28;19925;-59
2022/01/30 05:49:38;;;;;;;;;;;-3.10;99.90;;;;;;4156430;28;19917;-62
2022/01/30 05:51:39;;;;;;;;;;;-3.10;99.90;;;;;;4158804;28;19917;-56
2022/01/30 05:53:40;;;;;;;;;;;-3.10;99.90;;;;;;4160139;28;19917;-58
2022/01/30 05:55:41;;;;;;;;;;;-3.10;99.90;;;;;;4158955;28;19920;-54
2022/01/30 05:57:42;;;;;;;;;;;-3.10;99.90;;;;;;4141604;28;19948;-62
2022/01/30 05:59:43;;;;;;;;;;;-3.20;99.90;;;;;;4159161;28;20011;-58
2022/01/30 06:01:44;;;;;;;;;;;-3.20;99.90;;;;;;4159721;28;19919;-62
2022/01/30 06:03:45;;;;;;;;;;;-3.10;99.90;;;;;;4141904;28;19913;-61
2022/01/30 06:05:46;;;;;;;;;;;-3.10;99.90;;;;;;4157271;28;20651;-59
2022/01/30 06:07:51;;;;;;;;;;;-3.10;99.90;;;;;;4143753;28;19976;-58
2022/01/30 06:09:52;;;;;;;;;;;-3.10;99.90;;;;;;4142540;28;19967;-61
2022/01/30 06:11:53;;;;;;;;;;;-3.10;99.90;;;;;;4156205;28;19972;-54
2022/01/30 06:13:54;;;;;;;;;;;-3.10;99.90;;;;;;4158711;28;19909;-58
2022/01/30 06:15:55;;;;;;;;;;;-3.10;99.90;;;;;;4159838;28;20812;-58
2022/01/30 06:17:56;;;;;;;;;;;-3.10;99.90;;;;;;4158593;28;19920;-55
2022/01/30 06:19:57;;;;;;;;;;;-3.10;99.90;;;;;;4160035;28;19917;-58
2022/01/30 06:21:58;;;;;;;;;;;-3.10;99.90;;;;;;4157670;28;19917;-58
2022/01/30 06:24:00;;;;;;;;;;;-3.10;99.90;;;;;;4159459;28;20423;-57
2022/01/30 06:26:01;;;;;;;;;;;-3.10;99.90;;;;;;4158536;28;19909;-54
2022/01/30 06:28:02;;;;;;;;;;;-3.10;99.90;;;;;;4159462;28;20262;-59
2022/01/30 06:30:03;;;;;;;;;;;-3.00;99.90;;;;;;4158257;28;19913;-53
2022/01/30 06:32:05;;;;;;;;;;;-3.00;99.90;;;;;;4159140;28;19913;-56
2022/01/30 06:34:05;;;;;;;;;;;-2.90;99.90;;;;;;4159247;28;19913;-55
2022/01/30 06:36:06;;;;;;;;;;;-2.90;99.90;;;;;;4158315;28;19913;-54
2022/01/30 06:38:07;;;;;;;;;;;-2.90;99.90;;;;;;4159242;28;20698;-58
2022/01/30 06:40:09;;;;;;;;;;;-2.80;99.90;;;;;;4154321;28;19926;-61
2022/01/30 06:42:11;;;;;;;;;;;-2.70;99.90;;;;;;4142917;28;19913;-59
2022/01/30 06:44:12;;;;;;;;;;;-2.80;99.90;;;;;;4141748;28;19913;-54
2022/01/30 06:46:15;;;;;;;;;;;-2.70;99.90;;;;;;4142771;28;20432;-62
2022/01/30 06:48:17;;;;;;;;;;;-2.70;99.90;;;;;;4141838;28;20008;-61
2022/01/30 06:50:18;;;;;;;;;;;-2.70;99.90;;;;;;4143218;28;19921;-52
2022/01/30 06:52:19;;;;;;;;;;;-2.60;99.90;;;;;;4124303;28;20005;-54
2022/01/30 06:54:20;;;;;;;;;;;-2.60;99.90;;;;;;4157694;28;19913;-53
2022/01/30 06:56:21;;;;;;;;;;;-2.60;99.90;;;;;;4158018;28;20365;-57
2022/01/30 06:58:21;;;;;;;;;;;-2.70;99.90;;;;;;4158642;28;19957;-59
2022/01/30 07:00:22;;;;;;;;;;;-2.70;99.90;;;;;;4158187;28;19917;-58
2022/01/30 07:02:23;;;;;;;;;;;-2.80;99.90;;;;;;4158470;28;19913;-54
2022/01/30 07:04:24;;;;;;;;;;;-2.80;99.90;;;;;;4158937;28;19913;-59
2022/01/30 07:06:25;;;;;;;;;;;-2.80;99.90;;;;;;4157719;28;19976;-60
2022/01/30 07:08:26;;;;;;;;;;;-2.80;99.90;;;;;;4158459;28;19956;-53
2022/01/30 07:10:27;;;;;;;;;;;-2.90;99.90;;;;;;4157695;28;19924;-61
2022/01/30 07:12:28;;;;;;;;;;;-2.90;99.90;;;;;;4159130;28;20302;-52
2022/01/30 07:14:29;;;;;;;;;;;-3.00;99.90;;;;;;4156926;28;20806;-58
2022/01/30 07:16:30;;;;;;;;;;;-3.00;99.90;;;;;;4140975;28;20286;-56
2022/01/30 07:18:31;;;;;;;;;;;-3.00;99.90;;;;;;4157406;28;19920;-55
2022/01/30 07:20:32;;;;;;;;;;;-3.00;99.90;;;;;;4140974;28;19913;-59
2022/01/30 07:22:33;;;;;;;;;;;-3.00;99.90;;;;;;4157433;28;19960;-55
2022/01/30 07:24:34;;;;;;;;;;;-2.90;99.90;;;;;;4158665;28;19914;-57
2022/01/30 07:26:35;;;;;;;;;;;-2.90;99.90;;;;;;4157509;28;19913;-55
2022/01/30 07:28:36;;;;;;;;;;;-2.90;99.90;;;;;;4157366;28;19920;-55
2022/01/30 07:30:37;;;;;;;;;;;-2.80;99.90;;;;;;4157775;28;20390;-54
2022/01/30 07:32:38;;;;;;;;;;;-2.80;99.90;;;;;;4157664;28;19963;-55
2022/01/30 07:34:39;;;;;;;;;;;-2.80;99.90;;;;;;4141095;28;20441;-58
2022/01/30 07:36:42;;;;;;;;;;;-2.80;99.90;;;;;;4140862;28;19913;-56
2022/01/30 07:38:43;;;;;;;;;;;-2.80;99.90;;;;;;4141367;28;19929;-55
2022/01/30 07:40:44;;;;;;;;;;;-2.70;99.90;;;;;;4131938;28;19909;-62
2022/01/30 07:42:45;;;;;;;;;;;-2.70;99.90;;;;;;4158331;28;19917;-58
2022/01/30 07:44:46;;;;;;;;;;;-2.60;99.90;;;;;;4157024;28;19947;-56
2022/01/30 07:46:47;;;;;;;;;;;-2.60;99.90;;;;;;4157595;28;19935;-54
2022/01/30 07:48:48;;;;;;;;;;;-2.70;99.90;;;;;;4156612;28;19917;-58
2022/01/30 07:50:49;;;;;;;;;;;-2.70;99.90;;;;;;4157587;28;19963;-57
2022/01/30 07:52:50;;;;;;;;;;;-2.80;99.90;;;;;;4155864;28;20020;-57
2022/01/30 07:54:51;;;;;;;;;;;-2.80;99.90;;;;;;4158582;28;19984;-55
2022/01/30 07:56:52;;;;;;;;;;;-2.80;99.90;;;;;;4157477;28;20558;-58
2022/01/30 07:58:53;;;;;;;;;;;-2.90;99.90;;;;;;4156979;28;19917;-56
2022/01/30 08:00:53;;;;;;;;;;;-2.90;99.90;;;;;;4156133;28;21928;-55
2022/01/30 08:02:54;;;;;;;;;;;-2.80;99.90;;;;;;4157640;28;19913;-57
2022/01/30 08:04:55;;;;;;;;;;;-2.80;99.90;;;;;;4157894;28;20625;-51
2022/01/30 08:06:56;;;;;;;;;;;-2.80;99.90;;;;;;4156737;28;19914;-57
2022/01/30 08:08:57;;;;;;;;;;;-2.70;99.90;;;;;;4158702;28;20387;-58
2022/01/30 08:10:58;;;;;;;;;;;-2.70;99.90;;;;;;4157069;28;20297;-60
2022/01/30 08:12:59;;;;;;;;;;;-2.40;99.90;;;;;;4157527;28;19917;-59
2022/01/30 08:15:00;;;;;;;;;;;-2.10;99.90;;;;;;4157176;28;20396;-52
2022/01/30 08:17:01;;;;;;;;;;;-2.10;99.90;;;;;;4158125;28;20000;-53
2022/01/30 08:19:02;;;;;;;;;;;-2.10;99.90;;;;;;4156952;28;19925;-64
2022/01/30 08:21:04;;;;;;;;;;;-2.10;99.90;;;;;;4158023;28;19920;-61
2022/01/30 08:23:10;;;;;;;;;;;-2.10;99.90;;;;;;4156350;28;19917;-54
2022/01/30 08:25:11;;;;;;;;;;;-1.90;99.90;;;;;;4140281;28;19948;-63
2022/01/30 08:27:12;;;;;;;;;;;-1.80;99.90;;;;;;4156241;28;19913;-62
2022/01/30 08:29:13;;;;;;;;;;;-1.60;99.90;;;;;;4157754;28;19920;-62
2022/01/30 08:31:14;;;;;;;;;;;-1.70;99.90;;;;;;4155981;28;20301;-61
2022/01/30 08:33:16;;;;;;;;;;;-1.50;99.90;;;;;;4156776;28;19913;-59
2022/01/30 08:35:17;;;;;;;;;;;-1.30;99.90;;;;;;4157543;28;19913;-58
2022/01/30 08:37:18;;;;;;;;;;;-1.10;99.90;;;;;;4156515;28;20377;-62
2022/01/30 08:39:19;;;;;;;;;;;-1.00;99.90;;;;;;4157484;28;19928;-67
2022/01/30 08:41:20;;;;;;;;;;;-0.90;99.90;;;;;;4156616;28;20278;-58
2022/01/30 08:43:21;;;;;;;;;;;-0.90;99.90;;;;;;4158305;28;19909;-60
2022/01/30 08:45:23;;;;;;;;;;;-0.90;99.90;;;;;;4156795;28;20050;-61
2022/01/30 08:47:24;;;;;;;;;;;-1.00;99.90;;;;;;4157529;28;19979;-63
2022/01/30 08:49:25;;;;;;;;;;;-1.10;99.90;;;;;;4156623;28;20751;-67
2022/01/30 08:51:26;;;;;;;;;;;-1.20;99.90;;;;;;4157226;28;19921;-62
2022/01/30 08:53:27;;;;;;;;;;;-1.20;99.90;;;;;;4156641;28;20361;-67
2022/01/30 08:55:29;;;;;;;;;;;-1.20;99.90;;;;;;4139505;28;20441;-67
2022/01/30 08:57:30;;;;;;;;;;;-0.90;99.90;;;;;;4156272;28;19963;-60
2022/01/30 08:59:31;;;;;;;;;;;-0.10;99.90;;;;;;4139274;28;21002;-68
2022/01/30 09:01:33;;;;;;;;;;;0.60;99.90;;;;;;4156151;28;20416;-63
2022/01/30 09:03:34;;;;;;;;;;;1.20;99.90;;;;;;4158338;28;19980;-67
2022/01/30 09:05:35;;;;;;;;;;;2.00;99.90;;;;;;4160234;28;19913;-69
2022/01/30 09:07:37;;;;;;;;;;;2.70;99.90;;;;;;4160192;28;19913;-61
2022/01/30 09:09:38;;;;;;;;;;;3.30;99.90;;;;;;4160772;28;20432;-64
2022/01/30 09:11:39;;;;;;;;;;;3.70;99.90;;;;;;4159902;28;19920;-64
2022/01/30 09:13:39;;;;;;;;;;;3.90;99.90;;;;;;4160666;28;20397;-55
2022/01/30 09:15:42;;;;;;;;;;;4.10;99.90;;;;;;4159494;28;19913;-55
2022/01/30 09:17:44;;;;;;;;;;;4.20;99.90;;;;;;4160422;28;19917;-63
2022/01/30 09:19:46;;;;;;;;;;;4.30;99.90;;;;;;4141326;28;20414;-64
2022/01/30 09:21:47;;;;;;;;;;;4.40;99.90;;;;;;4160022;28;19917;-60
2022/01/30 09:23:47;;;;;;;;;;;4.40;99.90;;;;;;4159735;28;19909;-59
2022/01/30 09:25:48;;;;;;;;;;;4.50;99.90;;;;;;4159469;28;19913;-61
2022/01/30 09:27:49;;;;;;;;;;;4.60;99.90;;;;;;4159368;28;19917;-64
2022/01/30 09:29:50;;;;;;;;;;;4.70;99.90;;;;;;4159777;28;19919;-60
2022/01/30 09:31:51;;;;;;;;;;;4.70;99.90;;;;;;4159480;28;19983;-60
2022/01/30 09:33:52;;;;;;;;;;;4.70;99.90;;;;;;4158921;28;19924;-57
2022/01/30 09:35:53;;;;;;;;;;;4.30;99.90;;;;;;4164057;28;19912;-59
2022/01/30 09:37:54;;;;;;;;;;;3.80;99.90;;;;;;4176240;28;20011;-55
2022/01/30 09:39:55;;;;;;;;;;;3.50;99.90;;;;;;4169458;28;19932;-56
2022/01/30 09:41:56;;;;;;;;;;;3.40;99.90;;;;;;4163884;28;20399;-52
2022/01/30 09:43:59;;;;;;;;;;;3.70;99.90;;;;;;4176583;28;19959;-59
2022/01/30 09:46:00;;;;;;;;;;;4.00;99.90;;;;;;4176008;28;19916;-58
2022/01/30 09:48:01;;;;;;;;;;;3.90;99.90;;;;;;4176688;28;19925;-59
2022/01/30 09:50:04;;;;;;;;;;;3.90;99.90;;;;;;4175374;28;19919;-61
2022/01/30 09:52:05;;;;;;;;;;;4.00;99.90;;;;;;4175067;28;19912;-61
2022/01/30 09:54:08;;;;;;;;;;;3.80;99.90;;;;;;4171089;28;19913;-64
2022/01/30 09:56:09;;;;;;;;;;;3.30;99.90;;;;;;4159396;28;19963;-59
2022/01/30 09:58:10;;;;;;;;;;;2.70;99.90;;;;;;4158895;28;19913;-60
2022/01/30 10:00:11;;;;;;;;;;;2.00;99.90;;;;;;4159779;28;19971;-56
2022/01/30 10:02:13;;;;;;;;;;;1.40;99.90;;;;;;4158601;28;20008;-59
2022/01/30 10:04:13;;;;;;;;;;;1.10;99.90;;;;;;4159211;28;20020;-54
2022/01/30 10:06:19;;;;;;;;;;;1.00;99.90;;;;;;4158478;28;19963;-60
2022/01/30 10:08:27;;;;;;;;;;;1.10;99.90;;;;;;4159101;28;19917;-56
2022/01/30 10:10:29;;;;;;;;;;;1.20;99.90;;;;;;4158532;28;19917;-62
2022/01/30 10:12:31;;;;;;;;;;;1.10;99.90;;;;;;4158837;28;20328;-57
2022/01/30 10:14:31;;;;;;;;;;;1.00;99.90;;;;;;4158204;28;19959;-54
2022/01/30 10:16:34;;;;;;;;;;;1.10;99.90;;;;;;4158146;28;19909;-63
2022/01/30 10:18:42;;;;;;;;;;;1.30;99.90;;;;;;4158126;28;19959;-53
2022/01/30 10:20:43;;;;;;;;;;;1.70;99.90;;;;;;4147809;28;19925;-56
2022/01/30 10:23:08;;;;;;;;;;;2.40;99.90;;;;;;4160957;28;20401;-61
2022/01/30 10:25:16;;;;;;;;;;;2.90;99.90;;;;;;4142145;28;20285;-53
2022/01/30 10:27:24;;;;;;;;;;;3.70;99.90;;;;;;4146327;28;20394;-54
2022/01/30 10:29:27;;;;;;;;;;;4.20;99.90;;;;;;4158356;28;19967;-60
2022/01/30 10:31:28;;;;;;;;;;;4.70;99.90;;;;;;4159786;28;19971;-54
2022/01/30 10:33:41;;;;;;;;;;;5.00;99.90;;;;;;4156791;28;19963;-61
2022/01/30 10:35:45;;;;;;;;;;;5.20;99.90;;;;;;4159328;28;19974;-60
2022/01/30 10:37:46;;;;;;;;;;;5.40;99.90;;;;;;4158347;28;19913;-54
2022/01/30 10:39:53;;;;;;;;;;;5.60;99.90;;;;;;4159262;28;19921;-54
2022/01/30 10:41:56;;;;;;;;;;;5.60;99.90;;;;;;4158680;28;20010;-61
2022/01/30 10:43:57;;;;;;;;;;;5.70;99.90;;;;;;4159292;28;19919;-62
2022/01/30 10:46:15;;;;;;;;;;;5.70;99.90;;;;;;4157487;28;19924;-61
2022/01/30 10:48:17;;;;;;;;;;;5.80;99.90;;;;;;4159289;28;19925;-52
2022/01/30 10:50:19;;;;;;;;;;;5.80;99.90;;;;;;4158339;28;19913;-62
2022/01/30 10:52:22;;;;;;;;;;;5.80;99.90;;;;;;4141385;28;20425;-59
2022/01/30 10:54:26;;;;;;;;;;;5.80;99.90;;;;;;4158039;28;20671;-61
2022/01/30 10:56:28;;;;;;;;;;;5.80;99.90;;;;;;4158513;28;19913;-52
2022/01/30 10:58:29;;;;;;;;;;;5.80;99.90;;;;;;4158074;28;19909;-59
2022/01/30 11:00:41;;;;;;;;;;;5.70;99.90;;;;;;4158419;28;19948;-59
2022/01/30 11:02:42;;;;;;;;;;;5.60;99.90;;;;;;4158360;28;20385;-55
2022/01/30 11:04:44;;;;;;;;;;;5.50;99.90;;;;;;4158557;28;19913;-58
2022/01/30 11:06:46;;;;;;;;;;;5.50;99.90;;;;;;4157845;28;19913;-60
2022/01/30 11:08:50;;;;;;;;;;;5.40;99.90;;;;;;4157358;28;20394;-60
2022/01/30 11:11:08;;;;;;;;;;;5.30;99.90;;;;;;4145486;28;19960;-59
2022/01/30 11:13:09;;;;;;;;;;;5.30;99.90;;;;;;4141273;28;19917;-60
2022/01/30 11:15:23;;;;;;;;;;;5.30;99.90;;;;;;4158377;28;19917;-60
2022/01/30 11:17:24;;;;;;;;;;;5.30;99.90;;;;;;4156454;28;19952;-57
2022/01/30 11:19:26;;;;;;;;;;;5.40;99.90;;;;;;4158103;28;20515;-51
2022/01/30 11:21:28;;;;;;;;;;;5.40;99.90;;;;;;4157407;28;19913;-58
2022/01/30 11:23:29;;;;;;;;;;;5.40;99.90;;;;;;4158576;28;19917;-60
2022/01/30 11:25:33;;;;;;;;;;;5.50;99.90;;;;;;4157553;28;19967;-61
2022/01/30 11:27:35;;;;;;;;;;;5.50;99.90;;;;;;4158496;28;19917;-60
2022/01/30 11:29:37;;;;;;;;;;;5.60;99.90;;;;;;4156460;28;19948;-62
2022/01/30 11:31:38;;;;;;;;;;;5.60;99.90;;;;;;4158917;28;19913;-63
2022/01/30 11:33:39;;;;;;;;;;;5.50;99.90;;;;;;4158034;28;19956;-57
2022/01/30 11:35:41;;;;;;;;;;;5.40;99.90;;;;;;4140891;28;19921;-56
2022/01/30 11:37:43;;;;;;;;;;;5.40;99.90;;;;;;4156732;28;19921;-53
2022/01/30 11:39:45;;;;;;;;;;;5.30;99.90;;;;;;4157050;28;19921;-55
2022/01/30 11:42:05;;;;;;;;;;;5.30;99.90;;;;;;4157844;28;19917;-58
2022/01/30 11:44:17;;;;;;;;;;;5.30;99.90;;;;;;4157307;28;20397;-55
2022/01/30 11:46:18;;;;;;;;;;;5.30;99.90;;;;;;4156733;28;19963;-61
2022/01/30 11:48:19;;;;;;;;;;;5.40;99.90;;;;;;4158363;28;19928;-64
2022/01/30 11:50:21;;;;;;;;;;;5.40;99.90;;;;;;4157495;28;19951;-66
2022/01/30 11:52:45;;;;;;;;;;;5.50;99.90;;;;;;4154237;28;19967;-60
2022/01/30 11:54:47;;;;;;;;;;;5.60;99.90;;;;;;4141160;28;19913;-57
2022/01/30 11:56:47;;;;;;;;;;;5.70;99.90;;;;;;4154257;28;19944;-60
2022/01/30 11:58:54;;;;;;;;;;;5.70;99.90;;;;;;4157643;28;20438;-63
2022/01/30 12:00:56;;;;;;;;;;;5.70;99.90;;;;;;4139626;28;19921;-58
2022/01/30 12:03:15;;;;;;;;;;;5.60;99.90;;;;;;4158058;28;20403;-54
2022/01/30 12:05:33;;;;;;;;;;;5.60;99.90;;;;;;4157687;28;19909;-69
2022/01/30 12:07:38;;;;;;;;;;;5.50;99.90;;;;;;4157406;28;20203;-65
2022/01/30 12:09:38;;;;;;;;;;;5.50;99.90;;;;;;4157543;28;19909;-54
2022/01/30 12:11:39;;;;;;;;;;;5.50;99.90;;;;;;4157722;28;19943;-58
2022/01/30 12:13:44;;;;;;;;;;;5.40;99.90;;;;;;4157453;28;20302;-59
2022/01/30 12:15:46;;;;;;;;;;;5.40;99.90;;;;;;4157859;28;19916;-53
2022/01/30 12:17:49;;;;;;;;;;;5.40;99.90;;;;;;4156371;28;19967;-53
2022/01/30 12:19:53;;;;;;;;;;;5.40;99.90;;;;;;4157990;28;19956;-55
2022/01/30 12:21:54;;;;;;;;;;;5.40;99.90;;;;;;4157052;28;19913;-55
2022/01/30 12:23:55;;;;;;;;;;;5.30;99.90;;;;;;4157979;28;19909;-52
2022/01/30 12:26:03;;;;;;;;;;;5.40;99.90;;;;;;4156261;28;19917;-58
2022/01/30 12:28:04;;;;;;;;;;;5.30;99.90;;;;;;4157574;28;19955;-55
2022/01/30 12:30:25;;;;;;;;;;;5.30;99.90;;;;;;4155672;28;19917;-56
2022/01/30 12:32:27;;;;;;;;;;;5.30;99.90;;;;;;4157202;28;19909;-59
2022/01/30 12:34:28;;;;;;;;;;;5.30;99.90;;;;;;4156067;28;20404;-56
2022/01/30 12:36:31;;;;;;;;;;;5.30;99.90;;;;;;4157774;28;19913;-56
2022/01/30 12:38:32;;;;;;;;;;;5.40;99.90;;;;;;4155885;28;19955;-52
2022/01/30 12:40:33;;;;;;;;;;;5.40;99.90;;;;;;4150545;28;19975;-60
2022/01/30 12:42:35;;;;;;;;;;;5.50;99.90;;;;;;4140276;28;20529;-56
2022/01/30 12:44:36;;;;;;;;;;;5.60;99.90;;;;;;4141078;28;19967;-55
2022/01/30 12:46:39;;;;;;;;;;;5.60;99.90;;;;;;4140604;28;20362;-59
2022/01/30 12:48:40;;;;;;;;;;;5.60;99.90;;;;;;4140667;28;20401;-57